createdAt,value
2023-03-31T00:01:34.834Z,3.73
2023-03-31T00:04:05.983Z,3.75
2023-03-31T00:06:41.815Z,3.78
2023-03-31T00:09:12.023Z,3.77
2023-03-31T00:11:40.626Z,3.75
2023-03-31T00:14:09.167Z,3.76
2023-03-31T00:16:38.073Z,3.78
2023-03-31T00:19:06.370Z,3.81
2023-03-31T00:21:36.938Z,3.83
2023-03-31T00:24:09.188Z,3.84
2023-03-31T00:26:39.814Z,3.82
2023-03-31T00:29:09.196Z,3.79
2023-03-31T00:31:39.087Z,3.76
2023-03-31T00:34:07.541Z,3.74
2023-03-31T00:36:37.115Z,3.75
2023-03-31T00:39:10.482Z,3.76
2023-03-31T00:41:39.379Z,3.78
2023-03-31T00:44:13.916Z,3.80
2023-03-31T00:46:56.404Z,3.82
2023-03-31T00:49:34.928Z,3.83
2023-03-31T00:52:10.878Z,3.80
2023-03-31T00:54:39.087Z,3.73
2023-03-31T00:57:07.575Z,3.65
2023-03-31T00:59:41.597Z,3.60
2023-03-31T01:02:09.877Z,3.58
2023-03-31T01:04:51.069Z,3.56
2023-03-31T01:07:26.557Z,3.54
2023-03-31T01:09:59.158Z,3.55
2023-03-31T01:12:28.148Z,3.56
2023-03-31T01:14:56.645Z,3.57
2023-03-31T01:17:25.235Z,3.58
2023-03-31T01:20:07.308Z,3.58
2023-03-31T01:22:46.281Z,3.59
2023-03-31T01:25:45.809Z,3.61
2023-03-31T01:28:42.388Z,3.62
2023-03-31T01:31:16.991Z,3.65
2023-03-31T01:33:49.014Z,3.69
2023-03-31T01:36:23.077Z,3.68
2023-03-31T01:39:10.159Z,3.66
2023-03-31T01:42:15.511Z,3.67
2023-03-31T01:45:19.735Z,3.71
2023-03-31T01:48:14.801Z,3.73
2023-03-31T01:51:15.524Z,3.75
2023-03-31T01:53:54.292Z,3.78
2023-03-31T01:56:37.442Z,3.81
2023-03-31T01:59:09.060Z,3.83
2023-03-31T02:01:47.279Z,3.83
2023-03-31T02:04:24.971Z,3.83
2023-03-31T02:06:57.701Z,3.87
2023-03-31T02:09:29.436Z,3.90
2023-03-31T02:11:57.775Z,3.92
2023-03-31T02:14:28.064Z,3.91
2023-03-31T02:16:58.655Z,3.90
2023-03-31T02:19:29.852Z,3.89
2023-03-31T02:21:59.297Z,3.85
2023-03-31T02:24:27.904Z,3.81
2023-03-31T02:27:37.946Z,3.76
2023-03-31T02:30:07.983Z,3.72
2023-03-31T02:32:44.644Z,3.72
2023-03-31T02:35:18.018Z,3.74
2023-03-31T02:37:46.573Z,3.75
2023-03-31T02:40:21.825Z,3.78
2023-03-31T02:42:50.093Z,3.82
2023-03-31T02:45:53.774Z,3.82
2023-03-31T02:48:32.918Z,3.83
2023-03-31T02:51:10.467Z,3.84
2023-03-31T02:54:18.754Z,3.84
2023-03-31T02:56:57.322Z,3.85
2023-03-31T02:59:58.126Z,3.86
2023-03-31T03:02:32.585Z,3.88
2023-03-31T03:05:09.912Z,3.88
2023-03-31T03:07:52.002Z,3.87
2023-03-31T03:10:26.518Z,3.86
2023-03-31T03:13:01.145Z,3.84
2023-03-31T03:15:41.361Z,3.83
2023-03-31T03:18:10.409Z,3.84
2023-03-31T03:20:39.427Z,3.84
2023-03-31T03:23:07.714Z,3.84
2023-03-31T03:25:35.899Z,3.83
2023-03-31T03:28:04.149Z,3.81
2023-03-31T03:30:32.470Z,3.80
2023-03-31T03:33:03.531Z,3.79
2023-03-31T03:35:33.247Z,3.81
2023-03-31T03:38:01.678Z,3.82
2023-03-31T03:40:30.824Z,3.83
2023-03-31T03:42:59.149Z,3.83
2023-03-31T03:45:28.194Z,3.81
2023-03-31T03:47:59.980Z,3.79
2023-03-31T03:50:28.223Z,3.79
2023-03-31T03:52:56.629Z,3.81
2023-03-31T03:55:29.169Z,3.83
2023-03-31T03:57:57.443Z,3.85
2023-03-31T04:00:25.957Z,3.87
2023-03-31T04:02:55.524Z,3.91
2023-03-31T04:05:23.911Z,3.96
2023-03-31T04:07:52.080Z,4.01
2023-03-31T04:10:22.029Z,4.06
2023-03-31T04:12:50.599Z,4.09
2023-03-31T04:15:18.753Z,4.14
2023-03-31T04:17:51.021Z,4.16
2023-03-31T04:20:19.929Z,4.19
2023-03-31T04:22:50.929Z,4.20
2023-03-31T04:25:20.013Z,4.19
2023-03-31T04:27:55.116Z,4.18
2023-03-31T04:30:31.082Z,4.15
2023-03-31T04:33:02.933Z,4.13
2023-03-31T04:35:50.067Z,4.10
2023-03-31T04:38:24.322Z,4.08
2023-03-31T04:40:52.968Z,4.05
2023-03-31T04:43:22.640Z,4.02
2023-03-31T04:45:51.106Z,4.00
2023-03-31T04:48:19.408Z,3.99
2023-03-31T04:50:48.400Z,3.98
2023-03-31T04:53:16.638Z,3.98
2023-03-31T04:55:46.385Z,3.97
2023-03-31T04:58:14.943Z,3.97
2023-03-31T05:00:44.175Z,3.96
2023-03-31T05:03:13.000Z,3.95
2023-03-31T05:05:41.664Z,3.94
2023-03-31T05:08:10.081Z,3.93
2023-03-31T05:10:46.880Z,3.93
2023-03-31T05:13:16.953Z,3.92
2023-03-31T05:15:45.653Z,3.88
2023-03-31T05:18:14.895Z,3.83
2023-03-31T05:20:43.419Z,3.77
2023-03-31T05:23:11.664Z,3.71
2023-03-31T05:25:42.443Z,3.67
2023-03-31T05:28:10.921Z,3.66
2023-03-31T05:30:39.110Z,3.66
2023-03-31T05:33:07.486Z,3.65
2023-03-31T05:35:36.792Z,3.65
2023-03-31T05:38:04.976Z,3.68
2023-03-31T05:40:33.981Z,3.72
2023-03-31T05:43:02.264Z,3.75
2023-03-31T05:45:31.251Z,3.77
2023-03-31T05:47:59.688Z,3.78
2023-03-31T05:50:28.343Z,3.82
2023-03-31T05:52:57.987Z,3.86
2023-03-31T05:55:33.580Z,3.87
2023-03-31T05:58:02.086Z,3.90
2023-03-31T06:00:31.682Z,3.94
2023-03-31T06:03:09.807Z,4.00
2023-03-31T06:05:38.249Z,4.02
2023-03-31T06:08:07.846Z,4.07
2023-03-31T06:10:38.573Z,4.11
2023-03-31T06:13:07.213Z,4.14
2023-03-31T06:15:41.791Z,4.16
2023-03-31T06:18:11.503Z,4.19
2023-03-31T06:20:39.960Z,4.22
2023-03-31T06:23:08.157Z,4.26
2023-03-31T06:25:50.358Z,4.30
2023-03-31T06:28:20.333Z,4.35
2023-03-31T06:30:48.607Z,4.39
2023-03-31T06:33:17.868Z,4.43
2023-03-31T06:35:46.439Z,4.50
2023-03-31T06:38:15.396Z,4.55
2023-03-31T06:40:43.717Z,4.61
2023-03-31T06:43:12.242Z,4.66
2023-03-31T06:45:41.671Z,4.73
2023-03-31T06:48:10.038Z,4.81
2023-03-31T06:50:39.518Z,4.91
2023-03-31T06:53:08.925Z,5.02
2023-03-31T06:55:37.652Z,5.10
2023-03-31T06:58:06.269Z,5.16
2023-03-31T07:00:34.573Z,5.23
2023-03-31T07:03:25.189Z,5.31
2023-03-31T07:05:55.133Z,5.38
2023-03-31T07:08:23.389Z,5.47
2023-03-31T07:10:58.009Z,5.54
2023-03-31T07:13:26.608Z,5.60
2023-03-31T07:15:55.849Z,5.63
2023-03-31T07:18:34.418Z,5.66
2023-03-31T07:21:07.248Z,5.72
2023-03-31T07:23:38.454Z,5.79
2023-03-31T07:26:08.046Z,5.84
2023-03-31T07:28:37.635Z,5.89
2023-03-31T07:31:15.552Z,5.97
2023-03-31T07:33:44.190Z,6.05
2023-03-31T07:36:14.177Z,6.11
2023-03-31T07:38:47.053Z,6.17
2023-03-31T07:41:20.067Z,6.22
2023-03-31T07:43:48.776Z,6.28
2023-03-31T07:46:22.677Z,6.35
2023-03-31T07:48:52.789Z,6.44
2023-03-31T07:51:23.775Z,6.52
2023-03-31T07:53:52.906Z,6.62
2023-03-31T07:56:24.843Z,6.73
2023-03-31T07:58:57.362Z,6.84
2023-03-31T08:01:29.077Z,6.92
2023-03-31T08:03:59.318Z,6.98
2023-03-31T08:06:29.276Z,7.08
2023-03-31T08:08:57.996Z,7.19
2023-03-31T08:11:26.429Z,7.29
2023-03-31T08:13:55.602Z,7.40
2023-03-31T08:16:23.991Z,7.47
2023-03-31T08:18:54.518Z,7.52
2023-03-31T08:21:24.580Z,7.57
2023-03-31T08:24:01.812Z,7.64
2023-03-31T08:26:32.997Z,7.67
2023-03-31T08:29:01.300Z,7.70
2023-03-31T08:31:30.749Z,7.74
2023-03-31T08:33:59.151Z,7.78
2023-03-31T08:36:31.074Z,7.82
2023-03-31T08:39:00.969Z,7.84
2023-03-31T08:41:42.960Z,7.86
2023-03-31T08:44:15.588Z,7.87
2023-03-31T08:46:45.402Z,7.90
2023-03-31T08:49:16.646Z,7.94
2023-03-31T08:52:05.419Z,7.98
2023-03-31T08:54:47.212Z,8.01
2023-03-31T08:57:20.160Z,8.03
2023-03-31T08:59:49.658Z,8.05
2023-03-31T09:02:42.556Z,8.06
2023-03-31T09:05:32.903Z,8.08
2023-03-31T09:08:01.533Z,8.11
2023-03-31T09:10:39.398Z,8.15
2023-03-31T09:13:45.125Z,8.20
2023-03-31T09:16:36.630Z,8.25
2023-03-31T09:19:09.228Z,8.31
2023-03-31T09:21:44.686Z,8.34
2023-03-31T09:24:15.394Z,8.40
2023-03-31T09:27:02.531Z,8.49
2023-03-31T09:29:32.635Z,8.59
2023-03-31T09:32:15.940Z,8.66
2023-03-31T09:34:44.897Z,8.71
2023-03-31T09:37:13.090Z,8.74
2023-03-31T09:39:41.626Z,8.77
2023-03-31T09:42:13.147Z,8.82
2023-03-31T09:44:42.341Z,8.86
2023-03-31T09:47:21.118Z,8.88
2023-03-31T09:49:53.574Z,8.89
2023-03-31T09:52:26.511Z,8.89
2023-03-31T09:54:55.581Z,8.88
2023-03-31T09:57:33.587Z,8.88
2023-03-31T10:00:19.256Z,8.89
2023-03-31T10:02:57.753Z,8.89
2023-03-31T10:05:27.647Z,8.88
2023-03-31T10:08:14.077Z,8.88
2023-03-31T10:10:49.721Z,8.89
2023-03-31T10:13:26.182Z,8.89
2023-03-31T10:16:05.212Z,8.90
2023-03-31T10:18:37.861Z,8.91
2023-03-31T10:21:07.511Z,8.93
2023-03-31T10:23:37.130Z,8.93
2023-03-31T10:26:05.565Z,8.94
2023-03-31T10:28:34.619Z,8.95
2023-03-31T10:31:03.704Z,8.96
2023-03-31T10:33:35.072Z,8.98
2023-03-31T10:36:13.384Z,8.99
2023-03-31T10:38:45.436Z,9.00
2023-03-31T10:41:18.091Z,9.02
2023-03-31T10:43:53.625Z,9.05
2023-03-31T10:46:47.447Z,9.08
2023-03-31T10:49:17.383Z,9.10
2023-03-31T10:51:49.389Z,9.13
2023-03-31T10:54:17.505Z,9.17
2023-03-31T10:56:48.684Z,9.21
2023-03-31T10:59:38.384Z,9.26
2023-03-31T11:02:16.136Z,9.27
2023-03-31T11:04:47.194Z,9.28
2023-03-31T11:07:18.124Z,9.29
2023-03-31T11:10:21.785Z,9.30
2023-03-31T11:12:52.744Z,9.34
2023-03-31T11:15:33.235Z,9.38
2023-03-31T11:18:06.342Z,9.39
2023-03-31T11:20:54.234Z,9.40
2023-03-31T11:23:42.293Z,9.42
2023-03-31T11:26:12.127Z,9.45
2023-03-31T11:28:43.932Z,9.47
2023-03-31T11:31:17.050Z,9.49
2023-03-31T11:33:45.841Z,9.50
2023-03-31T11:36:13.916Z,9.50
2023-03-31T11:38:53.795Z,9.51
2023-03-31T11:41:38.777Z,9.50
2023-03-31T11:44:09.794Z,9.52
2023-03-31T11:46:44.788Z,9.53
2023-03-31T11:49:16.479Z,9.55
2023-03-31T11:52:06.634Z,9.58
2023-03-31T11:54:39.557Z,9.60
2023-03-31T11:57:13.970Z,9.64
2023-03-31T11:59:42.792Z,9.67
2023-03-31T12:02:16.572Z,9.70
2023-03-31T12:04:46.219Z,9.73
2023-03-31T12:07:31.419Z,9.77
2023-03-31T12:10:13.749Z,9.82
2023-03-31T12:13:05.530Z,9.90
2023-03-31T12:15:39.768Z,9.96
2023-03-31T12:18:18.693Z,9.98
2023-03-31T12:20:50.807Z,9.99
2023-03-31T12:23:23.439Z,10.00
2023-03-31T12:26:03.994Z,10.01
2023-03-31T12:28:37.688Z,10.02
2023-03-31T12:31:05.874Z,10.02
2023-03-31T12:33:41.971Z,10.02
2023-03-31T12:36:30.468Z,10.03
2023-03-31T12:39:09.284Z,10.04
2023-03-31T12:42:00.653Z,10.03
2023-03-31T12:44:29.041Z,10.02
2023-03-31T12:47:16.233Z,10.02
2023-03-31T12:49:50.424Z,10.01
2023-03-31T12:52:21.041Z,10.01
2023-03-31T12:54:49.279Z,10.01
2023-03-31T12:57:24.000Z,10.01
2023-03-31T13:00:06.111Z,10.02
2023-03-31T13:02:35.271Z,10.03
2023-03-31T13:05:38.204Z,10.04
2023-03-31T13:08:10.545Z,10.05
2023-03-31T13:11:00.792Z,10.06
2023-03-31T13:13:29.248Z,10.05
2023-03-31T13:15:58.067Z,10.05
2023-03-31T13:18:33.319Z,10.05
2023-03-31T13:23:35.746Z,10.04
2023-03-31T13:26:04.447Z,10.05
2023-03-31T13:28:33.149Z,10.05
2023-03-31T13:31:02.579Z,10.04
2023-03-31T13:33:37.736Z,10.04
2023-03-31T13:36:18.461Z,10.03
2023-03-31T13:38:47.052Z,10.03
2023-03-31T13:41:19.579Z,10.03
2023-03-31T13:43:48.520Z,10.02
2023-03-31T13:46:16.670Z,10.02
2023-03-31T13:48:48.000Z,10.01
2023-03-31T13:51:37.461Z,10.00
2023-03-31T13:54:11.289Z,9.99
2023-03-31T13:56:58.913Z,9.97
2023-03-31T13:59:27.308Z,9.95
2023-03-31T14:02:14.226Z,9.94
2023-03-31T14:05:01.276Z,9.91
2023-03-31T14:07:29.541Z,9.85
2023-03-31T14:09:59.655Z,9.78
2023-03-31T14:12:33.175Z,9.71
2023-03-31T14:15:04.399Z,9.65
2023-03-31T14:17:37.705Z,9.58
2023-03-31T14:20:15.542Z,9.53
2023-03-31T14:22:48.088Z,9.47
2023-03-31T14:25:35.206Z,9.41
2023-03-31T14:28:26.540Z,9.34
2023-03-31T14:30:54.886Z,9.28
2023-03-31T14:33:30.383Z,9.22
2023-03-31T14:36:03.017Z,9.17
2023-03-31T14:38:32.484Z,9.13
2023-03-31T14:41:03.652Z,9.08
2023-03-31T14:43:33.956Z,9.04
2023-03-31T14:46:04.823Z,9.02
2023-03-31T14:48:43.544Z,9.01
2023-03-31T14:51:25.144Z,8.99
2023-03-31T14:53:57.318Z,8.99
2023-03-31T14:56:33.897Z,8.98
2023-03-31T14:59:02.139Z,8.95
2023-03-31T15:01:35.965Z,8.92
2023-03-31T15:04:10.178Z,8.88
2023-03-31T15:06:41.976Z,8.83
2023-03-31T15:09:12.885Z,8.80
2023-03-31T15:11:41.025Z,8.75
2023-03-31T15:14:09.143Z,8.71
2023-03-31T15:16:42.666Z,8.68
2023-03-31T15:19:17.717Z,8.66
2023-03-31T15:21:46.960Z,8.63
2023-03-31T15:24:15.521Z,8.61
2023-03-31T15:26:56.092Z,8.59
2023-03-31T15:29:26.150Z,8.58
2023-03-31T15:31:56.476Z,8.57
2023-03-31T15:34:30.851Z,8.55
2023-03-31T15:36:59.244Z,8.53
2023-03-31T15:39:28.875Z,8.49
2023-03-31T15:41:57.191Z,8.46
2023-03-31T15:44:44.476Z,8.43
2023-03-31T15:47:13.203Z,8.39
2023-03-31T15:49:49.217Z,8.36
2023-03-31T15:52:23.354Z,8.32
2023-03-31T15:54:53.376Z,8.28
2023-03-31T15:57:22.757Z,8.24
2023-03-31T15:59:55.885Z,8.20
2023-03-31T16:02:25.586Z,8.17
2023-03-31T16:04:57.469Z,8.14
2023-03-31T16:07:27.563Z,8.11
2023-03-31T16:09:58.244Z,8.07
2023-03-31T16:12:33.186Z,8.03
2023-03-31T16:15:06.558Z,8.00
2023-03-31T16:17:47.424Z,7.96
2023-03-31T16:20:23.097Z,7.94
2023-03-31T16:22:55.058Z,7.91
2023-03-31T16:25:23.943Z,7.89
2023-03-31T16:27:59.986Z,7.87
2023-03-31T16:30:36.480Z,7.84
2023-03-31T16:33:11.666Z,7.80
2023-03-31T16:35:42.048Z,7.77
2023-03-31T16:38:13.836Z,7.75
2023-03-31T16:40:46.329Z,7.74
2023-03-31T16:43:15.471Z,7.72
2023-03-31T16:45:44.715Z,7.70
2023-03-31T16:48:16.622Z,7.68
2023-03-31T16:50:51.444Z,7.67
2023-03-31T16:53:23.353Z,7.66
2023-03-31T16:55:51.900Z,7.66
2023-03-31T16:58:24.097Z,7.65
2023-03-31T17:00:52.436Z,7.62
2023-03-31T17:03:21.408Z,7.60
2023-03-31T17:05:53.043Z,7.55
2023-03-31T17:08:21.766Z,7.51
2023-03-31T17:10:52.231Z,7.48
2023-03-31T17:13:21.197Z,7.44
2023-03-31T17:15:50.508Z,7.40
2023-03-31T17:18:20.825Z,7.33
2023-03-31T17:20:49.596Z,7.27
2023-03-31T17:23:24.470Z,7.21
2023-03-31T17:25:56.281Z,7.17
2023-03-31T17:28:24.323Z,7.17
2023-03-31T17:30:55.950Z,7.18
2023-03-31T17:33:25.977Z,7.18
2023-03-31T17:35:59.864Z,7.18
2023-03-31T17:38:29.121Z,7.16
2023-03-31T17:41:06.945Z,7.15
2023-03-31T17:43:35.599Z,7.15
2023-03-31T17:46:08.148Z,7.15
2023-03-31T17:48:40.972Z,7.16
2023-03-31T17:51:15.062Z,7.16
2023-03-31T17:53:47.874Z,7.16
2023-03-31T17:56:16.614Z,7.15
2023-03-31T17:58:45.437Z,7.14
2023-03-31T18:01:14.155Z,7.13
2023-03-31T18:03:42.396Z,7.13
2023-03-31T18:06:11.863Z,7.12
2023-03-31T18:08:40.743Z,7.12
2023-03-31T18:11:09.173Z,7.12
2023-03-31T18:13:40.692Z,7.13
2023-03-31T18:16:09.806Z,7.15
2023-03-31T18:18:39.512Z,7.17
2023-03-31T18:21:10.095Z,7.19
2023-03-31T18:23:38.756Z,7.22
2023-03-31T18:26:07.432Z,7.25
2023-03-31T18:28:35.896Z,7.29
2023-03-31T18:31:05.606Z,7.31
2023-03-31T18:33:34.931Z,7.32
2023-03-31T18:36:04.008Z,7.33
2023-03-31T18:38:33.570Z,7.34
2023-03-31T18:41:04.465Z,7.35
2023-03-31T18:43:33.437Z,7.35
2023-03-31T18:46:01.944Z,7.35
2023-03-31T18:48:30.761Z,7.37
2023-03-31T18:50:58.873Z,7.37
2023-03-31T18:53:26.901Z,7.38
2023-03-31T18:55:58.297Z,7.40
2023-03-31T18:58:30.330Z,7.40
2023-03-31T19:00:59.097Z,7.42
2023-03-31T19:03:30.986Z,7.41
2023-03-31T19:06:05.284Z,7.40
2023-03-31T19:08:35.941Z,7.41
2023-03-31T19:11:06.097Z,7.42
2023-03-31T19:13:35.642Z,7.42
2023-03-31T19:16:25.702Z,7.42
2023-03-31T19:18:55.738Z,7.43
2023-03-31T19:21:27.251Z,7.42
2023-03-31T19:23:55.438Z,7.42
2023-03-31T19:26:23.578Z,7.43
2023-03-31T19:28:52.381Z,7.43
2023-03-31T19:31:20.426Z,7.45
2023-03-31T19:33:55.594Z,7.47
2023-03-31T19:36:24.033Z,7.51
2023-03-31T19:38:53.041Z,7.54
2023-03-31T19:41:22.036Z,7.59
2023-03-31T19:43:50.149Z,7.63
2023-03-31T19:46:18.373Z,7.67
2023-03-31T19:48:46.745Z,7.68
2023-03-31T19:51:15.806Z,7.70
2023-03-31T19:53:43.836Z,7.72
2023-03-31T19:56:16.045Z,7.73
2023-03-31T19:58:45.012Z,7.74
2023-03-31T20:01:15.442Z,7.75
2023-03-31T20:03:44.925Z,7.76
2023-03-31T20:06:13.913Z,7.75
2023-03-31T20:08:42.804Z,7.74
2023-03-31T20:11:14.057Z,7.73
2023-03-31T20:13:42.613Z,7.73
2023-03-31T20:16:10.665Z,7.72
2023-03-31T20:18:48.173Z,7.72
2023-03-31T20:21:17.541Z,7.71
2023-03-31T20:23:48.319Z,7.71
2023-03-31T20:26:18.928Z,7.73
2023-03-31T20:28:49.688Z,7.76
2023-03-31T20:31:20.918Z,7.79
2023-03-31T20:33:51.253Z,7.83
2023-03-31T20:36:20.203Z,7.87
2023-03-31T20:38:53.242Z,7.90
2023-03-31T20:41:22.574Z,7.92
2023-03-31T20:43:50.925Z,7.94
2023-03-31T20:46:19.333Z,7.95
2023-03-31T20:48:49.623Z,7.96
2023-03-31T20:51:23.337Z,7.96
2023-03-31T20:53:53.097Z,7.97
2023-03-31T20:56:28.979Z,7.96
2023-03-31T20:58:59.162Z,7.96
2023-03-31T21:01:31.136Z,7.92
2023-03-31T21:04:02.140Z,7.87
2023-03-31T21:06:32.713Z,7.81
2023-03-31T21:09:01.037Z,7.79
2023-03-31T21:11:32.111Z,7.78
2023-03-31T21:14:01.019Z,7.78
2023-03-31T21:16:29.371Z,7.79
2023-03-31T21:19:00.971Z,7.80
2023-03-31T21:21:29.413Z,7.80
2023-03-31T21:23:58.385Z,7.80
2023-03-31T21:26:27.204Z,7.80
2023-03-31T21:28:58.798Z,7.81
2023-03-31T21:31:27.710Z,7.77
2023-03-31T21:33:58.925Z,7.75
2023-03-31T21:36:27.941Z,7.75
2023-03-31T21:38:57.530Z,7.75
2023-03-31T21:41:27.201Z,7.72
2023-03-31T21:43:55.678Z,7.69
2023-03-31T21:46:24.840Z,7.66
2023-03-31T21:48:52.868Z,7.61
2023-03-31T21:51:22.433Z,7.61
2023-03-31T21:53:53.234Z,7.63
2023-03-31T21:56:24.976Z,7.65
2023-03-31T21:58:53.443Z,7.67
2023-03-31T22:01:21.883Z,7.68
2023-03-31T22:03:52.032Z,7.68
2023-03-31T22:06:21.675Z,7.67
2023-03-31T22:08:49.736Z,7.65
2023-03-31T22:11:24.535Z,7.63
2023-03-31T22:13:52.927Z,7.60
2023-03-31T22:16:21.941Z,7.56
2023-03-31T22:18:53.085Z,7.54
2023-03-31T22:21:22.987Z,7.53
2023-03-31T22:23:54.413Z,7.53
2023-03-31T22:26:22.789Z,7.53
2023-03-31T22:28:50.852Z,7.52
2023-03-31T22:31:19.316Z,7.53
2023-03-31T22:33:48.737Z,7.53
2023-03-31T22:36:17.013Z,7.54
2023-03-31T22:38:45.345Z,7.53
2023-03-31T22:41:13.427Z,7.51
2023-03-31T22:43:43.819Z,7.50
2023-03-31T22:46:14.199Z,7.50
2023-03-31T22:48:42.534Z,7.51
2023-03-31T22:51:12.241Z,7.52
2023-03-31T22:53:40.628Z,7.53
2023-03-31T22:56:10.671Z,7.54
2023-03-31T22:58:39.063Z,7.54
2023-03-31T23:01:09.897Z,7.54
2023-03-31T23:03:38.852Z,7.53
2023-03-31T23:06:07.122Z,7.51
2023-03-31T23:08:37.013Z,7.50
2023-03-31T23:11:08.852Z,7.51
2023-03-31T23:13:39.637Z,7.50
2023-03-31T23:16:28.597Z,7.50
2023-03-31T23:18:56.736Z,7.51
2023-03-31T23:21:26.705Z,7.50
2023-03-31T23:23:59.619Z,7.49
2023-03-31T23:26:31.361Z,7.49
2023-03-31T23:28:59.522Z,7.49
2023-03-31T23:31:28.513Z,7.48
2023-03-31T23:33:57.291Z,7.49
2023-03-31T23:36:25.896Z,7.50
2023-03-31T23:38:59.328Z,7.52
2023-03-31T23:41:27.403Z,7.54
2023-03-31T23:43:57.898Z,7.55
2023-03-31T23:46:26.740Z,7.58
2023-03-31T23:48:55.013Z,7.59
2023-03-31T23:51:23.276Z,7.61
2023-03-31T23:53:51.685Z,7.63
2023-03-31T23:56:25.573Z,7.66
2023-03-31T23:58:54.723Z,7.68
